sensor_id;sensor_type;location;lat;lon;timestamp;temperature;humidity
52016;DHT22;38032;53.326;6.472;2023-06-04T00:02:09;12.20;99.90
52016;DHT22;38032;53.326;6.472;2023-06-04T00:04:36;12.20;99.90
52016;DHT22;38032;53.326;6.472;2023-06-04T00:07:01;12.20;99.90
52016;DHT22;38032;53.326;6.472;2023-06-04T00:09:27;12.20;99.90
52016;DHT22;38032;53.326;6.472;2023-06-04T00:11:54;12.20;99.90
52016;DHT22;38032;53.326;6.472;2023-06-04T00:14:21;12.20;99.90
52016;DHT22;38032;53.326;6.472;2023-06-04T00:16:47;12.20;99.90
52016;DHT22;38032;53.326;6.472;2023-06-04T00:19:12;12.20;99.90
52016;DHT22;38032;53.326;6.472;2023-06-04T00:21:38;12.10;99.90
52016;DHT22;38032;53.326;6.472;2023-06-04T00:24:04;12.10;99.90
52016;DHT22;38032;53.326;6.472;2023-06-04T00:26:30;12.00;99.90
52016;DHT22;38032;53.326;6.472;2023-06-04T00:28:56;12.00;99.90
52016;DHT22;38032;53.326;6.472;2023-06-04T00:31:22;11.90;99.90
52016;DHT22;38032;53.326;6.472;2023-06-04T00:33:48;11.90;99.90
52016;DHT22;38032;53.326;6.472;2023-06-04T00:36:14;11.90;99.90
52016;DHT22;38032;53.326;6.472;2023-06-04T00:38:40;11.90;99.90
52016;DHT22;38032;53.326;6.472;2023-06-04T00:41:06;11.90;99.90
52016;DHT22;38032;53.326;6.472;2023-06-04T00:43:32;11.80;99.90
52016;DHT22;38032;53.326;6.472;2023-06-04T00:45:58;11.80;99.90
52016;DHT22;38032;53.326;6.472;2023-06-04T00:48:25;11.80;99.90
52016;DHT22;38032;53.326;6.472;2023-06-04T00:50:53;11.80;99.90
52016;DHT22;38032;53.326;6.472;2023-06-04T00:53:20;11.80;99.90
52016;DHT22;38032;53.326;6.472;2023-06-04T00:55:46;11.80;99.90
52016;DHT22;38032;53.326;6.472;2023-06-04T00:58:12;11.80;99.90
52016;DHT22;38032;53.326;6.472;2023-06-04T01:00:41;11.80;99.90
52016;DHT22;38032;53.326;6.472;2023-06-04T01:03:18;11.80;99.90
52016;DHT22;38032;53.326;6.472;2023-06-04T01:05:54;11.70;99.90
52016;DHT22;38032;53.326;6.472;2023-06-04T01:08:26;11.70;99.90
52016;DHT22;38032;53.326;6.472;2023-06-04T01:10:53;11.70;99.90
52016;DHT22;38032;53.326;6.472;2023-06-04T01:13:20;11.70;99.90
52016;DHT22;38032;53.326;6.472;2023-06-04T01:15:46;11.70;99.90
52016;DHT22;38032;53.326;6.472;2023-06-04T01:18:15;11.60;99.90
52016;DHT22;38032;53.326;6.472;2023-06-04T01:20:50;11.60;99.90
52016;DHT22;38032;53.326;6.472;2023-06-04T01:26:04;11.60;99.90
52016;DHT22;38032;53.326;6.472;2023-06-04T01:28:32;11.70;99.90
52016;DHT22;38032;53.326;6.472;2023-06-04T01:30:58;11.70;99.90
52016;DHT22;38032;53.326;6.472;2023-06-04T01:33:25;11.70;99.90
52016;DHT22;38032;53.326;6.472;2023-06-04T01:35:51;11.70;99.90
52016;DHT22;38032;53.326;6.472;2023-06-04T01:38:17;11.70;99.90
52016;DHT22;38032;53.326;6.472;2023-06-04T01:40:43;11.70;99.90
52016;DHT22;38032;53.326;6.472;2023-06-04T01:43:09;11.60;99.90
52016;DHT22;38032;53.326;6.472;2023-06-04T01:45:35;11.60;99.90
52016;DHT22;38032;53.326;6.472;2023-06-04T01:48:03;11.60;99.90
52016;DHT22;38032;53.326;6.472;2023-06-04T01:50:29;11.60;99.90
52016;DHT22;38032;53.326;6.472;2023-06-04T01:52:56;11.60;99.90
52016;DHT22;38032;53.326;6.472;2023-06-04T01:55:22;11.70;99.90
52016;DHT22;38032;53.326;6.472;2023-06-04T01:57:50;11.60;99.90
52016;DHT22;38032;53.326;6.472;2023-06-04T02:00:16;11.70;99.90
52016;DHT22;38032;53.326;6.472;2023-06-04T02:02:45;11.60;99.90
52016;DHT22;38032;53.326;6.472;2023-06-04T02:05:12;11.70;99.90
52016;DHT22;38032;53.326;6.472;2023-06-04T02:07:39;11.70;99.90
52016;DHT22;38032;53.326;6.472;2023-06-04T02:12:33;11.60;99.90
52016;DHT22;38032;53.326;6.472;2023-06-04T02:14:59;11.60;99.90
52016;DHT22;38032;53.326;6.472;2023-06-04T02:17:24;11.60;99.90
52016;DHT22;38032;53.326;6.472;2023-06-04T02:19:51;11.60;99.90
52016;DHT22;38032;53.326;6.472;2023-06-04T02:22:17;11.60;99.90
52016;DHT22;38032;53.326;6.472;2023-06-04T02:24:43;11.60;99.90
52016;DHT22;38032;53.326;6.472;2023-06-04T02:27:11;11.60;99.90
52016;DHT22;38032;53.326;6.472;2023-06-04T02:29:37;11.50;99.90
52016;DHT22;38032;53.326;6.472;2023-06-04T02:32:04;11.50;99.90
52016;DHT22;38032;53.326;6.472;2023-06-04T02:34:30;11.50;99.90
52016;DHT22;38032;53.326;6.472;2023-06-04T02:36:56;11.50;99.90
52016;DHT22;38032;53.326;6.472;2023-06-04T02:39:22;11.50;99.90
52016;DHT22;38032;53.326;6.472;2023-06-04T02:41:48;11.50;99.90
52016;DHT22;38032;53.326;6.472;2023-06-04T02:44:14;11.40;99.90
52016;DHT22;38032;53.326;6.472;2023-06-04T02:46:39;11.40;99.90
52016;DHT22;38032;53.326;6.472;2023-06-04T02:49:05;11.30;99.90
52016;DHT22;38032;53.326;6.472;2023-06-04T02:51:31;11.30;99.90
52016;DHT22;38032;53.326;6.472;2023-06-04T02:53:58;11.20;99.90
52016;DHT22;38032;53.326;6.472;2023-06-04T02:56:24;11.20;99.90
52016;DHT22;38032;53.326;6.472;2023-06-04T02:58:52;11.10;99.90
52016;DHT22;38032;53.326;6.472;2023-06-04T03:01:20;11.10;99.90
52016;DHT22;38032;53.326;6.472;2023-06-04T03:03:47;11.10;99.90
52016;DHT22;38032;53.326;6.472;2023-06-04T03:06:13;11.10;99.90
52016;DHT22;38032;53.326;6.472;2023-06-04T03:08:41;11.20;99.90
52016;DHT22;38032;53.326;6.472;2023-06-04T03:11:07;11.00;99.90
52016;DHT22;38032;53.326;6.472;2023-06-04T03:13:33;11.00;99.90
52016;DHT22;38032;53.326;6.472;2023-06-04T03:15:59;11.00;99.90
52016;DHT22;38032;53.326;6.472;2023-06-04T03:18:28;11.20;99.90
52016;DHT22;38032;53.326;6.472;2023-06-04T03:20:54;10.90;99.90
52016;DHT22;38032;53.326;6.472;2023-06-04T03:23:21;10.90;99.90
52016;DHT22;38032;53.326;6.472;2023-06-04T03:25:47;11.00;99.90
52016;DHT22;38032;53.326;6.472;2023-06-04T03:28:13;11.00;99.90
52016;DHT22;38032;53.326;6.472;2023-06-04T03:30:40;11.00;99.90
52016;DHT22;38032;53.326;6.472;2023-06-04T03:33:07;10.90;99.90
52016;DHT22;38032;53.326;6.472;2023-06-04T03:35:33;10.90;99.90
52016;DHT22;38032;53.326;6.472;2023-06-04T03:38:00;11.00;99.90
52016;DHT22;38032;53.326;6.472;2023-06-04T03:40:26;11.00;99.90
52016;DHT22;38032;53.326;6.472;2023-06-04T03:42:51;11.00;99.90
52016;DHT22;38032;53.326;6.472;2023-06-04T03:45:17;11.00;99.90
52016;DHT22;38032;53.326;6.472;2023-06-04T03:47:43;11.10;99.90
52016;DHT22;38032;53.326;6.472;2023-06-04T03:50:09;11.10;99.90
52016;DHT22;38032;53.326;6.472;2023-06-04T03:52:36;11.10;99.90
52016;DHT22;38032;53.326;6.472;2023-06-04T03:55:02;11.10;99.90
52016;DHT22;38032;53.326;6.472;2023-06-04T03:57:28;11.10;99.90
52016;DHT22;38032;53.326;6.472;2023-06-04T03:59:54;11.10;99.90
52016;DHT22;38032;53.326;6.472;2023-06-04T04:02:21;11.10;99.90
52016;DHT22;38032;53.326;6.472;2023-06-04T04:04:46;11.10;99.90
52016;DHT22;38032;53.326;6.472;2023-06-04T04:07:12;11.10;99.90
52016;DHT22;38032;53.326;6.472;2023-06-04T04:09:39;11.10;99.90
52016;DHT22;38032;53.326;6.472;2023-06-04T04:12:05;11.10;99.90
52016;DHT22;38032;53.326;6.472;2023-06-04T04:14:31;11.10;99.90
52016;DHT22;38032;53.326;6.472;2023-06-04T04:16:57;11.10;99.90
52016;DHT22;38032;53.326;6.472;2023-06-04T04:19:22;11.20;99.90
52016;DHT22;38032;53.326;6.472;2023-06-04T04:21:48;11.20;99.90
52016;DHT22;38032;53.326;6.472;2023-06-04T04:24:23;11.30;99.90
52016;DHT22;38032;53.326;6.472;2023-06-04T04:26:48;11.40;99.90
52016;DHT22;38032;53.326;6.472;2023-06-04T04:29:20;11.50;99.90
52016;DHT22;38032;53.326;6.472;2023-06-04T04:31:50;11.60;99.90
52016;DHT22;38032;53.326;6.472;2023-06-04T04:34:16;11.60;99.90
52016;DHT22;38032;53.326;6.472;2023-06-04T04:36:43;11.70;99.90
52016;DHT22;38032;53.326;6.472;2023-06-04T04:39:10;11.80;99.90
52016;DHT22;38032;53.326;6.472;2023-06-04T04:41:37;11.80;99.90
52016;DHT22;38032;53.326;6.472;2023-06-04T04:44:04;11.80;99.90
52016;DHT22;38032;53.326;6.472;2023-06-04T04:46:31;11.80;99.90
52016;DHT22;38032;53.326;6.472;2023-06-04T04:48:57;11.80;99.90
52016;DHT22;38032;53.326;6.472;2023-06-04T04:51:23;11.90;99.90
52016;DHT22;38032;53.326;6.472;2023-06-04T04:53:48;11.90;99.90
52016;DHT22;38032;53.326;6.472;2023-06-04T04:56:15;12.10;99.90
52016;DHT22;38032;53.326;6.472;2023-06-04T04:58:40;12.10;99.90
52016;DHT22;38032;53.326;6.472;2023-06-04T05:01:07;12.10;99.90
52016;DHT22;38032;53.326;6.472;2023-06-04T05:03:33;12.10;99.90
52016;DHT22;38032;53.326;6.472;2023-06-04T05:05:59;12.20;99.90
52016;DHT22;38032;53.326;6.472;2023-06-04T05:08:25;12.20;99.90
52016;DHT22;38032;53.326;6.472;2023-06-04T05:10:51;12.20;99.90
52016;DHT22;38032;53.326;6.472;2023-06-04T05:13:17;12.20;99.90
52016;DHT22;38032;53.326;6.472;2023-06-04T05:15:43;12.20;99.90
52016;DHT22;38032;53.326;6.472;2023-06-04T05:18:09;12.30;99.90
52016;DHT22;38032;53.326;6.472;2023-06-04T05:20:35;12.30;99.90
52016;DHT22;38032;53.326;6.472;2023-06-04T05:23:03;12.40;99.90
52016;DHT22;38032;53.326;6.472;2023-06-04T05:25:30;12.50;99.90
52016;DHT22;38032;53.326;6.472;2023-06-04T05:27:57;12.70;99.90
52016;DHT22;38032;53.326;6.472;2023-06-04T05:30:22;12.70;99.90
52016;DHT22;38032;53.326;6.472;2023-06-04T05:32:48;12.80;99.90
52016;DHT22;38032;53.326;6.472;2023-06-04T05:35:16;12.90;99.90
52016;DHT22;38032;53.326;6.472;2023-06-04T05:37:42;13.00;99.90
52016;DHT22;38032;53.326;6.472;2023-06-04T05:40:11;13.10;99.90
52016;DHT22;38032;53.326;6.472;2023-06-04T05:42:38;13.10;99.90
52016;DHT22;38032;53.326;6.472;2023-06-04T05:45:05;13.20;99.90
52016;DHT22;38032;53.326;6.472;2023-06-04T05:47:31;13.20;99.90
52016;DHT22;38032;53.326;6.472;2023-06-04T05:49:57;13.20;99.90
52016;DHT22;38032;53.326;6.472;2023-06-04T05:52:23;13.20;99.90
52016;DHT22;38032;53.326;6.472;2023-06-04T05:54:49;13.20;99.90
52016;DHT22;38032;53.326;6.472;2023-06-04T05:57:15;13.20;99.90
52016;DHT22;38032;53.326;6.472;2023-06-04T05:59:41;13.30;99.90
52016;DHT22;38032;53.326;6.472;2023-06-04T06:02:07;13.30;99.90
52016;DHT22;38032;53.326;6.472;2023-06-04T06:04:33;13.30;99.90
52016;DHT22;38032;53.326;6.472;2023-06-04T06:06:59;13.30;99.90
52016;DHT22;38032;53.326;6.472;2023-06-04T06:09:25;13.40;99.90
52016;DHT22;38032;53.326;6.472;2023-06-04T06:11:51;13.40;99.90
52016;DHT22;38032;53.326;6.472;2023-06-04T06:14:16;13.40;99.90
52016;DHT22;38032;53.326;6.472;2023-06-04T06:16:42;13.50;99.90
52016;DHT22;38032;53.326;6.472;2023-06-04T06:19:08;13.50;99.90
52016;DHT22;38032;53.326;6.472;2023-06-04T06:21:34;13.60;99.90
52016;DHT22;38032;53.326;6.472;2023-06-04T06:24:00;13.60;99.90
52016;DHT22;38032;53.326;6.472;2023-06-04T06:26:26;13.70;99.90
52016;DHT22;38032;53.326;6.472;2023-06-04T06:28:52;13.70;99.90
52016;DHT22;38032;53.326;6.472;2023-06-04T06:31:17;13.70;99.90
52016;DHT22;38032;53.326;6.472;2023-06-04T06:33:43;13.70;99.90
52016;DHT22;38032;53.326;6.472;2023-06-04T06:36:11;13.80;99.90
52016;DHT22;38032;53.326;6.472;2023-06-04T06:38:38;13.90;99.90
52016;DHT22;38032;53.326;6.472;2023-06-04T06:41:04;13.90;99.90
52016;DHT22;38032;53.326;6.472;2023-06-04T06:43:30;14.00;99.90
52016;DHT22;38032;53.326;6.472;2023-06-04T06:45:57;14.00;99.90
52016;DHT22;38032;53.326;6.472;2023-06-04T06:48:23;14.10;99.90
52016;DHT22;38032;53.326;6.472;2023-06-04T06:50:49;14.10;99.90
52016;DHT22;38032;53.326;6.472;2023-06-04T06:53:15;14.10;99.90
52016;DHT22;38032;53.326;6.472;2023-06-04T06:55:41;14.10;99.90
52016;DHT22;38032;53.326;6.472;2023-06-04T06:58:07;14.20;99.90
52016;DHT22;38032;53.326;6.472;2023-06-04T07:00:33;14.20;99.90
52016;DHT22;38032;53.326;6.472;2023-06-04T07:02:59;14.20;99.90
52016;DHT22;38032;53.326;6.472;2023-06-04T07:05:25;14.30;99.90
52016;DHT22;38032;53.326;6.472;2023-06-04T07:07:50;14.30;99.90
52016;DHT22;38032;53.326;6.472;2023-06-04T07:10:18;14.30;99.90
52016;DHT22;38032;53.326;6.472;2023-06-04T07:12:44;14.30;99.90
52016;DHT22;38032;53.326;6.472;2023-06-04T07:15:10;14.40;99.90
52016;DHT22;38032;53.326;6.472;2023-06-04T07:17:36;14.40;99.90
52016;DHT22;38032;53.326;6.472;2023-06-04T07:20:02;14.50;99.90
52016;DHT22;38032;53.326;6.472;2023-06-04T07:22:32;14.60;99.90
52016;DHT22;38032;53.326;6.472;2023-06-04T07:24:58;14.60;99.90
52016;DHT22;38032;53.326;6.472;2023-06-04T07:27:24;14.70;99.90
52016;DHT22;38032;53.326;6.472;2023-06-04T07:29:50;14.70;99.90
52016;DHT22;38032;53.326;6.472;2023-06-04T07:32:16;14.80;99.90
52016;DHT22;38032;53.326;6.472;2023-06-04T07:34:41;14.80;99.90
52016;DHT22;38032;53.326;6.472;2023-06-04T07:37:07;14.90;99.90
52016;DHT22;38032;53.326;6.472;2023-06-04T07:39:35;14.90;99.90
52016;DHT22;38032;53.326;6.472;2023-06-04T07:42:01;14.90;99.90
52016;DHT22;38032;53.326;6.472;2023-06-04T07:44:27;15.00;99.90
52016;DHT22;38032;53.326;6.472;2023-06-04T07:46:53;15.00;99.90
52016;DHT22;38032;53.326;6.472;2023-06-04T07:49:19;15.10;99.90
52016;DHT22;38032;53.326;6.472;2023-06-04T07:51:45;15.10;99.90
52016;DHT22;38032;53.326;6.472;2023-06-04T07:54:11;15.10;99.90
52016;DHT22;38032;53.326;6.472;2023-06-04T07:56:39;15.20;99.90
52016;DHT22;38032;53.326;6.472;2023-06-04T07:59:05;15.20;99.90
52016;DHT22;38032;53.326;6.472;2023-06-04T08:01:31;15.30;99.90
52016;DHT22;38032;53.326;6.472;2023-06-04T08:03:57;15.30;99.90
52016;DHT22;38032;53.326;6.472;2023-06-04T08:06:25;15.30;99.90
52016;DHT22;38032;53.326;6.472;2023-06-04T08:08:52;15.40;99.90
52016;DHT22;38032;53.326;6.472;2023-06-04T08:11:18;15.40;99.90
52016;DHT22;38032;53.326;6.472;2023-06-04T08:13:44;15.40;99.90
52016;DHT22;38032;53.326;6.472;2023-06-04T08:16:10;15.50;99.90
52016;DHT22;38032;53.326;6.472;2023-06-04T08:18:38;15.50;99.90
52016;DHT22;38032;53.326;6.472;2023-06-04T08:21:05;15.60;99.90
52016;DHT22;38032;53.326;6.472;2023-06-04T08:23:32;15.60;99.90
52016;DHT22;38032;53.326;6.472;2023-06-04T08:25:58;15.70;99.90
52016;DHT22;38032;53.326;6.472;2023-06-04T08:28:25;15.70;99.90
52016;DHT22;38032;53.326;6.472;2023-06-04T08:30:51;15.80;99.90
52016;DHT22;38032;53.326;6.472;2023-06-04T08:33:17;15.80;99.90
52016;DHT22;38032;53.326;6.472;2023-06-04T08:35:43;15.90;99.90
52016;DHT22;38032;53.326;6.472;2023-06-04T08:38:09;15.90;99.90
52016;DHT22;38032;53.326;6.472;2023-06-04T08:40:34;15.90;99.90
52016;DHT22;38032;53.326;6.472;2023-06-04T08:43:01;16.00;99.90
52016;DHT22;38032;53.326;6.472;2023-06-04T08:45:27;16.00;99.90
52016;DHT22;38032;53.326;6.472;2023-06-04T08:47:54;16.00;99.90
52016;DHT22;38032;53.326;6.472;2023-06-04T08:50:23;16.10;99.90
52016;DHT22;38032;53.326;6.472;2023-06-04T08:52:53;16.10;99.90
52016;DHT22;38032;53.326;6.472;2023-06-04T08:55:20;16.10;99.90
52016;DHT22;38032;53.326;6.472;2023-06-04T08:57:47;16.20;99.90
52016;DHT22;38032;53.326;6.472;2023-06-04T09:00:15;16.20;99.90
52016;DHT22;38032;53.326;6.472;2023-06-04T09:02:43;16.20;99.90
52016;DHT22;38032;53.326;6.472;2023-06-04T09:05:10;16.20;99.90
52016;DHT22;38032;53.326;6.472;2023-06-04T09:07:37;16.20;99.90
52016;DHT22;38032;53.326;6.472;2023-06-04T09:10:05;16.20;99.90
52016;DHT22;38032;53.326;6.472;2023-06-04T09:12:33;16.30;99.90
52016;DHT22;38032;53.326;6.472;2023-06-04T09:15:01;17.50;99.90
52016;DHT22;38032;53.326;6.472;2023-06-04T09:17:27;18.70;97.40
52016;DHT22;38032;53.326;6.472;2023-06-04T09:19:54;18.80;98.40
52016;DHT22;38032;53.326;6.472;2023-06-04T09:22:20;19.90;95.80
52016;DHT22;38032;53.326;6.472;2023-06-04T09:24:56;20.80;93.80
52016;DHT22;38032;53.326;6.472;2023-06-04T09:27:22;21.80;90.50
52016;DHT22;38032;53.326;6.472;2023-06-04T09:29:50;22.30;85.60
52016;DHT22;38032;53.326;6.472;2023-06-04T09:32:23;22.80;81.60
52016;DHT22;38032;53.326;6.472;2023-06-04T09:34:49;23.20;78.00
52016;DHT22;38032;53.326;6.472;2023-06-04T09:37:16;23.60;76.60
52016;DHT22;38032;53.326;6.472;2023-06-04T09:39:43;23.80;73.70
52016;DHT22;38032;53.326;6.472;2023-06-04T09:42:10;24.10;73.40
52016;DHT22;38032;53.326;6.472;2023-06-04T09:44:43;24.40;73.10
52016;DHT22;38032;53.326;6.472;2023-06-04T09:47:11;24.70;68.30
52016;DHT22;38032;53.326;6.472;2023-06-04T09:49:46;24.90;71.10
52016;DHT22;38032;53.326;6.472;2023-06-04T09:52:13;25.00;69.70
52016;DHT22;38032;53.326;6.472;2023-06-04T09:54:41;25.20;70.20
52016;DHT22;38032;53.326;6.472;2023-06-04T09:57:15;25.10;68.60
52016;DHT22;38032;53.326;6.472;2023-06-04T09:59:44;25.00;66.30
52016;DHT22;38032;53.326;6.472;2023-06-04T10:02:12;24.80;68.20
52016;DHT22;38032;53.326;6.472;2023-06-04T10:04:41;24.50;68.60
52016;DHT22;38032;53.326;6.472;2023-06-04T10:07:09;24.60;67.10
52016;DHT22;38032;53.326;6.472;2023-06-04T10:09:38;24.70;66.70
52016;DHT22;38032;53.326;6.472;2023-06-04T10:12:13;24.80;65.50
52016;DHT22;38032;53.326;6.472;2023-06-04T10:14:55;24.80;64.90
52016;DHT22;38032;53.326;6.472;2023-06-04T10:17:23;24.80;65.90
52016;DHT22;38032;53.326;6.472;2023-06-04T10:19:52;24.90;66.20
52016;DHT22;38032;53.326;6.472;2023-06-04T10:22:20;24.80;66.50
52016;DHT22;38032;53.326;6.472;2023-06-04T10:24:47;24.70;66.70
52016;DHT22;38032;53.326;6.472;2023-06-04T10:27:13;24.60;66.90
52016;DHT22;38032;53.326;6.472;2023-06-04T10:29:39;24.70;65.90
52016;DHT22;38032;53.326;6.472;2023-06-04T10:32:06;24.70;66.90
52016;DHT22;38032;53.326;6.472;2023-06-04T10:34:32;24.50;66.30
52016;DHT22;38032;53.326;6.472;2023-06-04T10:36:58;24.20;65.80
52016;DHT22;38032;53.326;6.472;2023-06-04T10:39:27;24.00;65.50
52016;DHT22;38032;53.326;6.472;2023-06-04T10:42:02;24.10;66.10
52016;DHT22;38032;53.326;6.472;2023-06-04T10:44:32;23.90;64.70
52016;DHT22;38032;53.326;6.472;2023-06-04T10:46:58;23.70;65.60
52016;DHT22;38032;53.326;6.472;2023-06-04T10:49:28;23.70;66.20
52016;DHT22;38032;53.326;6.472;2023-06-04T10:51:55;23.50;65.80
52016;DHT22;38032;53.326;6.472;2023-06-04T10:54:23;23.20;66.10
52016;DHT22;38032;53.326;6.472;2023-06-04T10:56:51;23.00;66.70
52016;DHT22;38032;53.326;6.472;2023-06-04T10:59:18;23.10;67.30
52016;DHT22;38032;53.326;6.472;2023-06-04T11:01:44;23.00;68.00
52016;DHT22;38032;53.326;6.472;2023-06-04T11:04:19;22.90;69.30
52016;DHT22;38032;53.326;6.472;2023-06-04T11:06:46;22.60;67.80
52016;DHT22;38032;53.326;6.472;2023-06-04T11:09:14;22.50;68.20
52016;DHT22;38032;53.326;6.472;2023-06-04T11:11:43;22.40;68.70
52016;DHT22;38032;53.326;6.472;2023-06-04T11:14:10;22.30;69.10
52016;DHT22;38032;53.326;6.472;2023-06-04T11:16:37;22.10;69.40
52016;DHT22;38032;53.326;6.472;2023-06-04T11:19:03;21.90;69.30
52016;DHT22;38032;53.326;6.472;2023-06-04T11:21:29;21.60;71.00
52016;DHT22;38032;53.326;6.472;2023-06-04T11:23:58;21.50;71.70
52016;DHT22;38032;53.326;6.472;2023-06-04T11:26:37;21.30;73.20
52016;DHT22;38032;53.326;6.472;2023-06-04T11:29:06;21.10;71.50
52016;DHT22;38032;53.326;6.472;2023-06-04T11:31:45;21.10;72.60
52016;DHT22;38032;53.326;6.472;2023-06-04T11:34:23;20.90;71.40
52016;DHT22;38032;53.326;6.472;2023-06-04T11:36:49;20.80;74.30
52016;DHT22;38032;53.326;6.472;2023-06-04T11:39:19;20.60;76.00
52016;DHT22;38032;53.326;6.472;2023-06-04T11:41:45;20.60;75.80
52016;DHT22;38032;53.326;6.472;2023-06-04T11:44:12;20.50;74.90
52016;DHT22;38032;53.326;6.472;2023-06-04T11:46:41;20.20;76.70
52016;DHT22;38032;53.326;6.472;2023-06-04T11:49:07;20.10;77.80
52016;DHT22;38032;53.326;6.472;2023-06-04T11:51:33;20.00;78.30
52016;DHT22;38032;53.326;6.472;2023-06-04T11:53:59;19.90;80.10
52016;DHT22;38032;53.326;6.472;2023-06-04T11:56:27;19.70;81.40
52016;DHT22;38032;53.326;6.472;2023-06-04T11:58:54;19.60;84.90
52016;DHT22;38032;53.326;6.472;2023-06-04T12:01:21;19.50;86.10
52016;DHT22;38032;53.326;6.472;2023-06-04T12:03:48;19.50;86.10
52016;DHT22;38032;53.326;6.472;2023-06-04T12:06:15;19.30;85.10
52016;DHT22;38032;53.326;6.472;2023-06-04T12:08:53;19.10;86.90
52016;DHT22;38032;53.326;6.472;2023-06-04T12:11:29;18.90;88.70
52016;DHT22;38032;53.326;6.472;2023-06-04T12:14:00;19.00;88.80
52016;DHT22;38032;53.326;6.472;2023-06-04T12:16:27;18.90;90.00
52016;DHT22;38032;53.326;6.472;2023-06-04T12:19:07;18.80;87.90
52016;DHT22;38032;53.326;6.472;2023-06-04T12:21:34;18.80;90.50
52016;DHT22;38032;53.326;6.472;2023-06-04T12:24:11;18.70;90.60
52016;DHT22;38032;53.326;6.472;2023-06-04T12:26:38;18.70;91.40
52016;DHT22;38032;53.326;6.472;2023-06-04T12:29:13;18.80;91.80
52016;DHT22;38032;53.326;6.472;2023-06-04T12:31:41;18.90;91.10
52016;DHT22;38032;53.326;6.472;2023-06-04T12:34:08;18.80;91.30
52016;DHT22;38032;53.326;6.472;2023-06-04T12:36:34;18.70;91.90
52016;DHT22;38032;53.326;6.472;2023-06-04T12:39:01;18.70;91.90
52016;DHT22;38032;53.326;6.472;2023-06-04T12:41:28;18.80;91.70
52016;DHT22;38032;53.326;6.472;2023-06-04T12:43:55;18.70;91.90
52016;DHT22;38032;53.326;6.472;2023-06-04T12:46:21;18.80;92.00
52016;DHT22;38032;53.326;6.472;2023-06-04T12:48:50;18.90;92.30
52016;DHT22;38032;53.326;6.472;2023-06-04T12:51:16;18.90;92.80
52016;DHT22;38032;53.326;6.472;2023-06-04T12:53:42;18.90;91.70
52016;DHT22;38032;53.326;6.472;2023-06-04T12:56:08;18.80;91.40
52016;DHT22;38032;53.326;6.472;2023-06-04T12:58:34;18.70;92.00
52016;DHT22;38032;53.326;6.472;2023-06-04T13:01:01;18.60;93.00
52016;DHT22;38032;53.326;6.472;2023-06-04T13:03:27;18.60;92.90
52016;DHT22;38032;53.326;6.472;2023-06-04T13:05:53;18.60;93.10
52016;DHT22;38032;53.326;6.472;2023-06-04T13:08:19;18.60;93.10
52016;DHT22;38032;53.326;6.472;2023-06-04T13:10:48;18.50;93.20
52016;DHT22;38032;53.326;6.472;2023-06-04T13:13:14;18.60;93.70
52016;DHT22;38032;53.326;6.472;2023-06-04T13:15:42;18.70;93.60
52016;DHT22;38032;53.326;6.472;2023-06-04T13:18:09;18.70;93.30
52016;DHT22;38032;53.326;6.472;2023-06-04T13:20:37;18.60;93.00
52016;DHT22;38032;53.326;6.472;2023-06-04T13:23:03;18.50;93.50
52016;DHT22;38032;53.326;6.472;2023-06-04T13:25:29;18.50;93.70
52016;DHT22;38032;53.326;6.472;2023-06-04T13:27:59;18.40;94.40
52016;DHT22;38032;53.326;6.472;2023-06-04T13:30:26;18.40;93.70
52016;DHT22;38032;53.326;6.472;2023-06-04T13:32:52;18.40;93.50
52016;DHT22;38032;53.326;6.472;2023-06-04T13:35:19;18.40;92.80
52016;DHT22;38032;53.326;6.472;2023-06-04T13:37:45;18.40;92.50
52016;DHT22;38032;53.326;6.472;2023-06-04T13:40:11;18.40;93.90
52016;DHT22;38032;53.326;6.472;2023-06-04T13:42:37;18.60;94.00
52016;DHT22;38032;53.326;6.472;2023-06-04T13:45:03;18.60;94.10
52016;DHT22;38032;53.326;6.472;2023-06-04T13:47:29;18.60;94.00
52016;DHT22;38032;53.326;6.472;2023-06-04T13:49:55;18.50;92.90
52016;DHT22;38032;53.326;6.472;2023-06-04T13:52:21;18.50;93.10
52016;DHT22;38032;53.326;6.472;2023-06-04T13:54:47;18.50;92.90
52016;DHT22;38032;53.326;6.472;2023-06-04T13:57:13;18.40;93.00
52016;DHT22;38032;53.326;6.472;2023-06-04T13:59:39;18.30;92.30
52016;DHT22;38032;53.326;6.472;2023-06-04T14:02:06;18.10;92.40
52016;DHT22;38032;53.326;6.472;2023-06-04T14:04:32;18.10;92.60
52016;DHT22;38032;53.326;6.472;2023-06-04T14:06:58;18.10;93.50
52016;DHT22;38032;53.326;6.472;2023-06-04T14:09:24;18.20;93.60
52016;DHT22;38032;53.326;6.472;2023-06-04T14:11:50;18.20;93.80
52016;DHT22;38032;53.326;6.472;2023-06-04T14:14:17;18.00;93.80
52016;DHT22;38032;53.326;6.472;2023-06-04T14:16:44;18.00;93.40
52016;DHT22;38032;53.326;6.472;2023-06-04T14:19:11;17.90;93.70
52016;DHT22;38032;53.326;6.472;2023-06-04T14:21:37;18.00;99.30
52016;DHT22;38032;53.326;6.472;2023-06-04T14:24:03;17.80;93.80
52016;DHT22;38032;53.326;6.472;2023-06-04T14:26:29;17.80;93.50
52016;DHT22;38032;53.326;6.472;2023-06-04T14:28:56;17.70;93.80
52016;DHT22;38032;53.326;6.472;2023-06-04T14:31:22;17.70;93.70
52016;DHT22;38032;53.326;6.472;2023-06-04T14:33:48;17.60;93.80
52016;DHT22;38032;53.326;6.472;2023-06-04T14:36:14;17.50;94.90
52016;DHT22;38032;53.326;6.472;2023-06-04T14:38:41;17.60;94.90
52016;DHT22;38032;53.326;6.472;2023-06-04T14:41:07;17.60;94.60
52016;DHT22;38032;53.326;6.472;2023-06-04T14:43:33;17.50;94.70
52016;DHT22;38032;53.326;6.472;2023-06-04T14:45:59;17.50;95.40
52016;DHT22;38032;53.326;6.472;2023-06-04T14:48:25;17.40;96.00
52016;DHT22;38032;53.326;6.472;2023-06-04T14:50:51;17.40;95.90
52016;DHT22;38032;53.326;6.472;2023-06-04T14:53:19;17.30;96.60
52016;DHT22;38032;53.326;6.472;2023-06-04T14:55:46;17.20;97.20
52016;DHT22;38032;53.326;6.472;2023-06-04T14:58:13;17.20;97.80
52016;DHT22;38032;53.326;6.472;2023-06-04T15:00:39;17.00;98.90
52016;DHT22;38032;53.326;6.472;2023-06-04T15:03:05;17.00;97.80
52016;DHT22;38032;53.326;6.472;2023-06-04T15:05:31;17.00;98.80
52016;DHT22;38032;53.326;6.472;2023-06-04T15:07:58;17.00;99.70
52016;DHT22;38032;53.326;6.472;2023-06-04T15:10:25;17.00;99.90
52016;DHT22;38032;53.326;6.472;2023-06-04T15:12:52;17.10;99.60
52016;DHT22;38032;53.326;6.472;2023-06-04T15:15:18;17.00;99.90
52016;DHT22;38032;53.326;6.472;2023-06-04T15:17:44;16.90;99.90
52016;DHT22;38032;53.326;6.472;2023-06-04T15:20:10;16.80;99.90
52016;DHT22;38032;53.326;6.472;2023-06-04T15:22:36;16.80;99.90
52016;DHT22;38032;53.326;6.472;2023-06-04T15:25:02;16.80;99.90
52016;DHT22;38032;53.326;6.472;2023-06-04T15:27:29;16.70;99.90
52016;DHT22;38032;53.326;6.472;2023-06-04T15:29:55;16.80;99.90
52016;DHT22;38032;53.326;6.472;2023-06-04T15:32:21;16.90;99.90
52016;DHT22;38032;53.326;6.472;2023-06-04T15:34:47;16.90;99.90